Time;durP1;ratioP1;P1;durP2;ratioP2;P2;SDS_P1;SDS_P2;PMS_P1;PMS_P2;Temp;Humidity;BMP_temperature;BMP_pressure;BME280_temperature;BME280_humidity;BME280_pressure;Samples;Min_cycle;Max_cycle;Signal;HPM_P1;HPM_P2
2022/01/05 00:00:06;;;;;;;2.10;0.90;;;;;;;;;;5052089;28;20103;-57
2022/01/05 00:02:33;;;;;;;3.93;1.00;;;;;;;;;;5052040;28;20029;-58
2022/01/05 00:05:00;;;;;;;3.50;1.07;;;;;;;;;;5050992;28;20036;-58
2022/01/05 00:07:26;;;;;;;3.80;1.50;;;;;;;;;;5049483;28;21525;-58
2022/01/05 00:09:53;;;;;;;5.00;2.10;;;;;;;;;;5046918;28;20028;-58
2022/01/05 00:12:20;;;;;;;4.70;1.70;;;;;;;;;;5047017;28;20029;-58
2022/01/05 00:14:47;;;;;;;23.87;8.10;;;;;;;;;;5046738;28;20386;-58
2022/01/05 00:17:13;;;;;;;24.37;7.33;;;;;;;;;;5048247;28;20025;-58
2022/01/05 00:19:40;;;;;;;22.97;8.27;;;;;;;;;;5051791;28;20029;-58
2022/01/05 00:22:07;;;;;;;16.03;6.17;;;;;;;;;;5050775;28;20111;-58
2022/01/05 00:24:36;;;;;;;10.20;3.20;;;;;;;;;;5051902;28;20083;-58
2022/01/05 00:27:03;;;;;;;12.93;4.23;;;;;;;;;;5051779;28;20025;-58
2022/01/05 00:29:30;;;;;;;12.27;3.60;;;;;;;;;;5049545;28;20364;-58
2022/01/05 00:31:57;;;;;;;6.70;2.90;;;;;;;;;;5046813;28;20079;-58
2022/01/05 00:34:23;;;;;;;9.67;2.40;;;;;;;;;;5049519;28;20055;-58
2022/01/05 00:36:50;;;;;;;14.37;2.80;;;;;;;;;;5049233;28;20025;-58
2022/01/05 00:39:17;;;;;;;26.47;2.50;;;;;;;;;;5051234;28;20104;-58
2022/01/05 00:41:44;;;;;;;29.03;2.90;;;;;;;;;;5055269;28;20098;-58
2022/01/05 00:44:10;;;;;;;21.03;2.67;;;;;;;;;;5055079;28;20356;-58
2022/01/05 00:46:37;;;;;;;22.40;2.93;;;;;;;;;;5055219;28;20096;-58
2022/01/05 00:49:04;;;;;;;19.00;3.37;;;;;;;;;;5055031;28;20032;-58
2022/01/05 00:51:31;;;;;;;10.50;2.23;;;;;;;;;;5053522;28;20025;-58
2022/01/05 00:53:57;;;;;;;13.17;3.30;;;;;;;;;;5049580;28;20116;-59
2022/01/05 00:56:24;;;;;;;7.90;2.07;;;;;;;;;;5050014;28;20021;-58
2022/01/05 00:58:51;;;;;;;7.03;2.30;;;;;;;;;;5049729;28;20078;-58
2022/01/05 01:01:18;;;;;;;16.30;3.03;;;;;;;;;;5050794;28;20064;-58
2022/01/05 01:03:44;;;;;;;15.57;2.90;;;;;;;;;;5054709;28;20360;-57
2022/01/05 01:06:11;;;;;;;6.40;2.10;;;;;;;;;;5054713;28;20402;-58
2022/01/05 01:08:38;;;;;;;15.73;4.30;;;;;;;;;;5054647;28;20025;-57
2022/01/05 01:11:05;;;;;;;10.87;2.63;;;;;;;;;;5054209;28;20029;-58
2022/01/05 01:13:31;;;;;;;8.57;2.47;;;;;;;;;;5053307;28;20033;-58
2022/01/05 01:15:58;;;;;;;8.23;2.40;;;;;;;;;;5049430;28;20503;-58
2022/01/05 01:18:25;;;;;;;14.77;2.70;;;;;;;;;;5049684;28;20025;-58
2022/01/05 01:20:52;;;;;;;11.50;2.87;;;;;;;;;;5049287;28;20037;-58
2022/01/05 01:23:22;;;;;;;5.80;1.87;;;;;;;;;;5049775;28;20060;-58
2022/01/05 01:25:52;;;;;;;5.43;2.27;;;;;;;;;;5053902;28;20428;-58
2022/01/05 01:28:20;;;;;;;13.13;2.90;;;;;;;;;;5053953;28;20025;-58
2022/01/05 01:30:47;;;;;;;6.23;1.80;;;;;;;;;;5054198;28;20029;-58
2022/01/05 01:33:14;;;;;;;8.13;2.53;;;;;;;;;;5053900;28;20028;-59
2022/01/05 01:35:41;;;;;;;11.53;2.80;;;;;;;;;;5052867;28;20090;-60
2022/01/05 01:38:08;;;;;;;7.63;2.53;;;;;;;;;;5042742;28;20018;-60
2022/01/05 01:40:35;;;;;;;8.13;2.80;;;;;;;;;;5058933;28;20063;-61
2022/01/05 01:43:01;;;;;;;9.30;2.30;;;;;;;;;;5049183;28;20468;-62
2022/01/05 01:45:28;;;;;;;9.00;3.30;;;;;;;;;;5059410;28;20035;-60
2022/01/05 01:47:55;;;;;;;18.67;3.53;;;;;;;;;;5055158;28;20371;-60
2022/01/05 01:50:22;;;;;;;5.77;3.03;;;;;;;;;;5059141;28;20025;-60
2022/01/05 01:52:48;;;;;;;6.93;2.93;;;;;;;;;;5073878;28;20104;-60
2022/01/05 01:55:15;;;;;;;8.97;3.60;;;;;;;;;;5060058;28;20450;-60
2022/01/05 01:57:44;;;;;;;8.77;2.93;;;;;;;;;;5052909;28;20017;-61
2022/01/05 02:00:11;;;;;;;8.83;2.30;;;;;;;;;;5048713;28;20084;-60
2022/01/05 02:02:39;;;;;;;9.07;2.77;;;;;;;;;;5048724;28;20479;-60
2022/01/05 02:05:06;;;;;;;5.97;2.20;;;;;;;;;;5048120;28;20055;-60
2022/01/05 02:07:33;;;;;;;7.80;3.13;;;;;;;;;;5048557;28;20033;-61
2022/01/05 02:10:00;;;;;;;12.93;2.80;;;;;;;;;;5053749;28;20038;-60
2022/01/05 02:12:28;;;;;;;14.30;3.10;;;;;;;;;;5053336;28;20052;-61
2022/01/05 02:14:55;;;;;;;12.13;4.27;;;;;;;;;;5053467;28;20029;-61
2022/01/05 02:17:29;;;;;;;12.27;4.43;;;;;;;;;;5052938;28;20040;-61
2022/01/05 02:19:56;;;;;;;14.85;5.03;;;;;;;;;;5052746;28;20083;-60
2022/01/05 02:22:23;;;;;;;12.40;4.80;;;;;;;;;;5047932;28;20514;-60
2022/01/05 02:24:50;;;;;;;22.37;5.57;;;;;;;;;;5048228;28;20548;-60
2022/01/05 02:27:17;;;;;;;6.60;3.07;;;;;;;;;;5043639;28;20029;-63
2022/01/05 02:29:45;;;;;;;11.37;3.60;;;;;;;;;;5047989;28;20037;-59
2022/01/05 02:32:12;;;;;;;7.27;3.67;;;;;;;;;;5052630;28;20081;-60
2022/01/05 02:34:39;;;;;;;10.50;4.20;;;;;;;;;;5053096;28;20036;-61
2022/01/05 02:37:06;;;;;;;15.93;6.20;;;;;;;;;;5052019;28;20036;-61
2022/01/05 02:39:33;;;;;;;15.70;5.67;;;;;;;;;;5052927;28;20029;-59
2022/01/05 02:42:00;;;;;;;14.00;5.27;;;;;;;;;;5052449;28;20104;-61
2022/01/05 02:44:27;;;;;;;13.93;5.53;;;;;;;;;;5054259;28;20024;-61
2022/01/05 02:46:54;;;;;;;15.03;6.13;;;;;;;;;;5064059;28;20091;-61
2022/01/05 02:49:21;;;;;;;11.97;5.60;;;;;;;;;;5047626;28;20029;-61
2022/01/05 02:51:48;;;;;;;10.50;5.40;;;;;;;;;;5047611;28;20108;-61
2022/01/05 02:54:17;;;;;;;15.40;6.57;;;;;;;;;;5052263;28;20029;-60
2022/01/05 02:56:47;;;;;;;11.47;4.30;;;;;;;;;;5051757;28;20032;-62
2022/01/05 02:59:17;;;;;;;13.57;5.07;;;;;;;;;;5051925;28;20467;-60
2022/01/05 03:01:47;;;;;;;16.17;5.50;;;;;;;;;;5059353;28;20021;-61
2022/01/05 03:04:14;;;;;;;12.13;4.90;;;;;;;;;;5052326;28;20505;-61
2022/01/05 03:06:41;;;;;;;12.60;5.40;;;;;;;;;;5047289;28;20029;-61
2022/01/05 03:09:11;;;;;;;17.10;6.07;;;;;;;;;;5047465;28;20099;-61
2022/01/05 03:11:40;;;;;;;13.80;5.53;;;;;;;;;;5047186;28;20024;-60
2022/01/05 03:14:08;;;;;;;10.87;4.57;;;;;;;;;;5047118;28;20028;-61
2022/01/05 03:16:39;;;;;;;16.57;4.73;;;;;;;;;;5052066;28;20068;-61
2022/01/05 03:19:10;;;;;;;13.77;4.33;;;;;;;;;;5052307;28;20036;-61
2022/01/05 03:21:40;;;;;;;8.80;4.33;;;;;;;;;;5052316;28;20017;-61
2022/01/05 03:24:09;;;;;;;14.73;4.80;;;;;;;;;;5052016;28;20078;-60
2022/01/05 03:26:41;;;;;;;11.77;5.47;;;;;;;;;;5051793;28;20678;-60
2022/01/05 03:29:12;;;;;;;17.67;5.40;;;;;;;;;;5046779;28;20491;-61
2022/01/05 03:31:43;;;;;;;10.50;4.83;;;;;;;;;;5047135;28;20035;-60
2022/01/05 03:34:18;;;;;;;9.40;4.20;;;;;;;;;;5046798;28;20433;-61
2022/01/05 03:36:48;;;;;;;15.00;4.40;;;;;;;;;;5052500;28;20033;-60
2022/01/05 03:39:21;;;;;;;14.37;5.00;;;;;;;;;;5052252;28;20468;-62
2022/01/05 03:41:53;;;;;;;8.70;4.00;;;;;;;;;;5052242;28;20075;-61
2022/01/05 03:44:23;;;;;;;14.10;4.63;;;;;;;;;;5051887;28;20035;-60
2022/01/05 03:46:52;;;;;;;11.37;4.17;;;;;;;;;;5051853;28;20029;-60
2022/01/05 03:49:21;;;;;;;12.47;4.03;;;;;;;;;;5050010;28;20029;-60
2022/01/05 03:51:54;;;;;;;8.97;4.47;;;;;;;;;;5046787;28;20024;-61
2022/01/05 03:54:20;;;;;;;14.33;5.07;;;;;;;;;;5046836;28;20035;-60
2022/01/05 03:56:47;;;;;;;18.00;5.43;;;;;;;;;;5046803;28;20052;-60
2022/01/05 03:59:14;;;;;;;9.90;4.33;;;;;;;;;;5047826;28;20067;-60
2022/01/05 04:01:41;;;;;;;8.20;3.40;;;;;;;;;;5051745;28;20111;-61
2022/01/05 04:04:08;;;;;;;15.97;6.23;;;;;;;;;;5051814;28;20029;-61
2022/01/05 04:06:34;;;;;;;14.00;4.93;;;;;;;;;;5052284;28;20124;-60
2022/01/05 04:09:01;;;;;;;18.37;7.40;;;;;;;;;;5055284;28;20048;-60
2022/01/05 04:11:28;;;;;;;19.00;8.57;;;;;;;;;;5054427;28;20091;-60
2022/01/05 04:13:55;;;;;;;28.53;11.90;;;;;;;;;;5050340;28;20029;-61
2022/01/05 04:16:22;;;;;;;22.40;8.20;;;;;;;;;;5050526;28;20387;-60
2022/01/05 04:18:49;;;;;;;69.93;27.40;;;;;;;;;;5050058;28;20479;-61
2022/01/05 04:21:15;;;;;;;34.33;11.87;;;;;;;;;;5050865;28;20097;-61
2022/01/05 04:23:42;;;;;;;14.27;6.50;;;;;;;;;;5055562;28;20104;-60
2022/01/05 04:26:09;;;;;;;18.90;5.47;;;;;;;;;;5055576;28;20025;-61
2022/01/05 04:28:37;;;;;;;20.10;6.07;;;;;;;;;;5055306;28;20494;-60
2022/01/05 04:31:04;;;;;;;17.00;7.23;;;;;;;;;;5054956;28;20040;-60
2022/01/05 04:33:30;;;;;;;25.07;9.90;;;;;;;;;;5054203;28;20025;-61
2022/01/05 04:35:57;;;;;;;15.00;6.57;;;;;;;;;;5059438;28;20035;-61
2022/01/05 04:38:24;;;;;;;13.07;6.17;;;;;;;;;;5069916;28;20103;-61
2022/01/05 04:40:51;;;;;;;14.23;5.83;;;;;;;;;;5064204;28;20036;-60
2022/01/05 04:43:18;;;;;;;11.47;4.53;;;;;;;;;;5050068;28;20032;-61
2022/01/05 04:45:44;;;;;;;9.70;4.37;;;;;;;;;;5055235;28;20017;-61
2022/01/05 04:48:11;;;;;;;10.60;4.47;;;;;;;;;;5054984;28;20024;-61
2022/01/05 04:50:38;;;;;;;13.77;4.10;;;;;;;;;;5054382;28;20024;-61
2022/01/05 04:53:05;;;;;;;10.13;4.47;;;;;;;;;;5054932;28;20036;-61
2022/01/05 04:55:32;;;;;;;15.87;4.10;;;;;;;;;;5052592;28;20045;-62
2022/01/05 04:57:59;;;;;;;8.93;3.40;;;;;;;;;;5049517;28;20029;-61
2022/01/05 05:00:26;;;;;;;14.83;3.43;;;;;;;;;;5049698;28;20053;-61
2022/01/05 05:03:00;;;;;;;8.93;3.20;;;;;;;;;;5049184;28;20037;-60
2022/01/05 05:05:27;;;;;;;9.43;3.57;;;;;;;;;;5049398;28;20100;-60
2022/01/05 05:07:54;;;;;;;10.47;3.20;;;;;;;;;;5058802;28;20033;-60
2022/01/05 05:10:20;;;;;;;7.43;3.37;;;;;;;;;;5074576;28;20443;-61
2022/01/05 05:12:47;;;;;;;6.57;2.97;;;;;;;;;;5074454;28;20505;-61
2022/01/05 05:15:14;;;;;;;11.00;3.53;;;;;;;;;;5074404;28;20078;-60
2022/01/05 05:17:41;;;;;;;9.00;3.03;;;;;;;;;;5057688;28;20108;-61
2022/01/05 05:20:08;;;;;;;12.50;3.57;;;;;;;;;;5048006;28;20078;-61
2022/01/05 05:22:35;;;;;;;8.47;3.13;;;;;;;;;;5049144;28;20032;-61
2022/01/05 05:25:02;;;;;;;7.03;3.87;;;;;;;;;;5049132;28;20021;-61
2022/01/05 05:27:29;;;;;;;9.00;3.60;;;;;;;;;;5049174;28;20589;-60
2022/01/05 05:29:56;;;;;;;7.30;3.00;;;;;;;;;;5054062;28;20463;-60
2022/01/05 05:32:23;;;;;;;12.60;2.93;;;;;;;;;;5054148;28;20361;-60
2022/01/05 05:34:49;;;;;;;10.23;3.80;;;;;;;;;;5054144;28;20032;-61
2022/01/05 05:37:16;;;;;;;38.80;12.37;;;;;;;;;;5054006;28;20032;-60
2022/01/05 05:39:43;;;;;;;18.47;6.87;;;;;;;;;;5053742;28;20029;-61
2022/01/05 05:42:10;;;;;;;18.53;5.57;;;;;;;;;;5048741;28;20475;-60
2022/01/05 05:44:37;;;;;;;17.67;4.50;;;;;;;;;;5048720;28;20040;-61
2022/01/05 05:47:08;;;;;;;24.83;7.97;;;;;;;;;;5048456;28;20104;-61
2022/01/05 05:49:34;;;;;;;23.27;7.13;;;;;;;;;;5048409;28;20025;-61
2022/01/05 05:52:01;;;;;;;17.83;5.63;;;;;;;;;;5053354;28;20105;-60
2022/01/05 05:54:28;;;;;;;17.60;5.17;;;;;;;;;;5053783;28;20484;-60
2022/01/05 05:56:55;;;;;;;22.03;6.83;;;;;;;;;;5053813;28;20029;-60
2022/01/05 05:59:22;;;;;;;25.20;7.00;;;;;;;;;;5053655;28;20025;-61
2022/01/05 06:01:48;;;;;;;15.00;5.63;;;;;;;;;;5052899;28;20028;-60
2022/01/05 06:04:15;;;;;;;14.60;4.77;;;;;;;;;;5048048;28;20021;-60
2022/01/05 06:06:42;;;;;;;12.23;4.40;;;;;;;;;;5047998;28;20025;-61
2022/01/05 06:09:09;;;;;;;10.60;4.33;;;;;;;;;;5048333;28;20442;-60
2022/01/05 06:11:35;;;;;;;11.00;4.80;;;;;;;;;;5047999;28;20503;-60
2022/01/05 06:14:02;;;;;;;11.03;3.00;;;;;;;;;;5052610;28;20036;-60
2022/01/05 06:16:29;;;;;;;16.03;5.50;;;;;;;;;;5053314;28;20136;-60
2022/01/05 06:18:55;;;;;;;8.57;3.57;;;;;;;;;;5053348;28;20021;-60
2022/01/05 06:21:22;;;;;;;7.13;2.87;;;;;;;;;;5052836;28;20368;-60
2022/01/05 06:23:49;;;;;;;7.20;2.97;;;;;;;;;;5052846;28;20043;-60
2022/01/05 06:26:16;;;;;;;12.10;3.47;;;;;;;;;;5048464;28;20349;-60
2022/01/05 06:28:42;;;;;;;5.30;2.63;;;;;;;;;;5047874;28;20510;-60
2022/01/05 06:31:09;;;;;;;8.50;3.37;;;;;;;;;;5046887;28;20021;-60
2022/01/05 06:33:36;;;;;;;6.17;2.57;;;;;;;;;;5047690;28;20060;-60
2022/01/05 06:36:03;;;;;;;6.07;2.43;;;;;;;;;;5051984;28;20114;-60
2022/01/05 06:38:30;;;;;;;7.07;2.03;;;;;;;;;;5052587;28;20021;-60
2022/01/05 06:40:57;;;;;;;4.70;1.90;;;;;;;;;;5053010;28;20021;-60
2022/01/05 06:43:23;;;;;;;5.77;2.33;;;;;;;;;;5052861;28;20025;-60
2022/01/05 06:45:50;;;;;;;5.63;2.47;;;;;;;;;;5052788;28;20423;-61
2022/01/05 06:48:17;;;;;;;6.77;2.50;;;;;;;;;;5047480;28;20395;-61
2022/01/05 06:50:44;;;;;;;6.43;2.40;;;;;;;;;;5047526;28;20040;-60
2022/01/05 06:53:10;;;;;;;10.97;3.63;;;;;;;;;;5046924;28;20035;-61
2022/01/05 06:55:37;;;;;;;6.00;2.60;;;;;;;;;;5047146;28;20621;-60
2022/01/05 06:58:04;;;;;;;3.67;1.50;;;;;;;;;;5051185;28;20029;-60
2022/01/05 07:00:31;;;;;;;7.67;2.93;;;;;;;;;;5052571;28;20608;-61
2022/01/05 07:02:58;;;;;;;6.77;2.60;;;;;;;;;;5052490;28;20024;-60
2022/01/05 07:05:25;;;;;;;7.53;2.83;;;;;;;;;;5052565;28;20029;-60
2022/01/05 07:07:52;;;;;;;8.47;3.13;;;;;;;;;;5052206;28;20028;-60
2022/01/05 07:10:19;;;;;;;13.50;5.37;;;;;;;;;;5047493;28;20075;-61
2022/01/05 07:12:45;;;;;;;16.83;5.13;;;;;;;;;;5047052;28;20363;-61
2022/01/05 07:15:12;;;;;;;16.83;6.90;;;;;;;;;;5047022;28;20288;-60
2022/01/05 07:17:39;;;;;;;15.40;5.33;;;;;;;;;;5046783;28;20029;-60
2022/01/05 07:20:06;;;;;;;12.40;4.03;;;;;;;;;;5050426;28;20075;-60
2022/01/05 07:22:33;;;;;;;11.80;4.07;;;;;;;;;;5052238;28;20024;-60
2022/01/05 07:25:00;;;;;;;8.87;3.50;;;;;;;;;;5051887;28;20028;-61
2022/01/05 07:27:27;;;;;;;5.13;1.93;;;;;;;;;;5052006;28;20328;-60
2022/01/05 07:29:54;;;;;;;11.23;4.30;;;;;;;;;;5052249;28;20429;-60
2022/01/05 07:32:21;;;;;;;8.90;3.03;;;;;;;;;;5048019;28;20272;-61
2022/01/05 07:34:47;;;;;;;12.10;4.10;;;;;;;;;;5046690;28;20090;-60
2022/01/05 07:37:15;;;;;;;8.53;3.50;;;;;;;;;;5046677;28;20024;-60
2022/01/05 07:39:41;;;;;;;7.83;3.37;;;;;;;;;;5046317;28;20729;-60
2022/01/05 07:42:09;;;;;;;7.30;2.50;;;;;;;;;;5051395;28;20021;-60
2022/01/05 07:44:36;;;;;;;9.53;3.33;;;;;;;;;;5056160;28;20598;-60
2022/01/05 07:47:03;;;;;;;9.33;2.90;;;;;;;;;;5056276;28;20265;-60
2022/01/05 07:49:30;;;;;;;7.83;2.40;;;;;;;;;;5056150;28;20329;-60
2022/01/05 07:51:56;;;;;;;4.70;2.10;;;;;;;;;;5056272;28;20272;-60
2022/01/05 07:54:23;;;;;;;8.27;2.37;;;;;;;;;;5051797;28;20290;-60
2022/01/05 07:56:50;;;;;;;7.43;2.60;;;;;;;;;;5050630;28;20266;-61
2022/01/05 07:59:17;;;;;;;4.23;2.20;;;;;;;;;;5050669;28;20893;-60
2022/01/05 08:01:43;;;;;;;7.17;2.40;;;;;;;;;;5050397;28;20254;-60
2022/01/05 08:04:10;;;;;;;6.10;2.10;;;;;;;;;;5053634;28;20333;-60
2022/01/05 08:06:37;;;;;;;6.00;2.40;;;;;;;;;;5055703;28;20274;-60
2022/01/05 08:09:04;;;;;;;5.10;1.57;;;;;;;;;;5055705;28;20651;-61
2022/01/05 08:11:31;;;;;;;4.97;2.00;;;;;;;;;;5055303;28;20254;-60
2022/01/05 08:13:57;;;;;;;5.07;1.90;;;;;;;;;;5055610;28;20282;-60
2022/01/05 08:16:24;;;;;;;5.47;1.83;;;;;;;;;;5051868;28;20624;-60
2022/01/05 08:18:51;;;;;;;5.00;1.70;;;;;;;;;;5050081;28;20265;-60
2022/01/05 08:21:18;;;;;;;4.43;1.67;;;;;;;;;;5050445;28;20258;-60
2022/01/05 08:23:44;;;;;;;2.40;0.90;;;;;;;;;;5050091;28;20273;-60
2022/01/05 08:26:11;;;;;;;4.97;1.40;;;;;;;;;;5052635;28;20250;-60
2022/01/05 08:28:38;;;;;;;4.17;1.07;;;;;;;;;;5055308;28;20744;-60
2022/01/05 08:31:05;;;;;;;2.60;1.70;;;;;;;;;;5055295;28;20316;-61
2022/01/05 08:33:32;;;;;;;3.13;1.03;;;;;;;;;;5055215;28;20642;-60
2022/01/05 08:35:59;;;;;;;2.90;1.07;;;;;;;;;;5055157;28;20273;-60
2022/01/05 08:38:26;;;;;;;2.20;1.10;;;;;;;;;;5051151;28;20589;-61
2022/01/05 08:40:52;;;;;;;3.47;1.03;;;;;;;;;;5050016;28;20258;-60
2022/01/05 08:43:19;;;;;;;4.67;1.37;;;;;;;;;;5049013;28;20258;-60
2022/01/05 08:45:46;;;;;;;3.67;1.30;;;;;;;;;;5049788;28;20763;-60
2022/01/05 08:48:13;;;;;;;5.07;1.10;;;;;;;;;;5052106;28;20333;-60
2022/01/05 08:50:40;;;;;;;8.40;1.80;;;;;;;;;;5055013;28;20296;-61
2022/01/05 08:53:07;;;;;;;5.67;1.03;;;;;;;;;;5054019;28;20260;-60
2022/01/05 08:55:36;;;;;;;2.57;0.87;;;;;;;;;;5054773;28;20708;-60
2022/01/05 08:58:03;;;;;;;3.57;1.10;;;;;;;;;;5054548;28;20262;-61
2022/01/05 09:00:32;;;;;;;3.43;1.30;;;;;;;;;;5052201;28;20341;-60
2022/01/05 09:02:59;;;;;;;2.43;1.13;;;;;;;;;;5048943;28;20266;-61
2022/01/05 09:05:26;;;;;;;3.17;1.00;;;;;;;;;;5049317;28;20262;-60
2022/01/05 09:07:53;;;;;;;3.83;0.90;;;;;;;;;;5049415;28;20308;-60
2022/01/05 09:10:20;;;;;;;2.43;1.03;;;;;;;;;;5051386;28;20259;-60
2022/01/05 09:12:46;;;;;;;3.63;0.97;;;;;;;;;;5054231;28;20294;-60
2022/01/05 09:15:13;;;;;;;4.10;1.10;;;;;;;;;;5054456;28;20278;-60
2022/01/05 09:17:40;;;;;;;2.60;1.20;;;;;;;;;;5054362;28;20760;-61
2022/01/05 09:20:08;;;;;;;4.47;1.30;;;;;;;;;;5054561;28;20246;-60
2022/01/05 09:22:38;;;;;;;4.23;1.33;;;;;;;;;;5051634;28;20250;-60
2022/01/05 09:25:06;;;;;;;4.33;1.70;;;;;;;;;;5048489;28;20270;-61
2022/01/05 09:27:33;;;;;;;2.70;1.33;;;;;;;;;;5048387;28;20288;-60
2022/01/05 09:30:00;;;;;;;3.50;1.20;;;;;;;;;;5049029;28;20265;-60
2022/01/05 09:32:26;;;;;;;2.23;0.80;;;;;;;;;;5051028;28;20671;-60
2022/01/05 09:34:53;;;;;;;2.23;1.13;;;;;;;;;;5054122;28;20377;-60
2022/01/05 09:37:24;;;;;;;1.87;1.17;;;;;;;;;;5054099;28;20258;-60
2022/01/05 09:42:37;;;;;;;2.55;1.15;;;;;;;;;;5054120;28;20269;-60
2022/01/05 09:45:16;;;;;;;4.07;1.23;;;;;;;;;;5050647;28;20075;-60
2022/01/05 09:48:09;;;;;;;2.83;1.10;;;;;;;;;;5048705;28;20263;-61
2022/01/05 09:50:37;;;;;;;1.93;0.93;;;;;;;;;;5025101;28;20756;-60
2022/01/05 09:53:04;;;;;;;3.43;1.20;;;;;;;;;;5048475;28;20254;-60
2022/01/05 09:55:31;;;;;;;2.83;1.20;;;;;;;;;;5052047;28;20388;-60
2022/01/05 09:57:59;;;;;;;2.70;1.07;;;;;;;;;;5053784;28;20258;-60
2022/01/05 10:00:25;;;;;;;2.23;1.00;;;;;;;;;;5053079;28;20265;-60
2022/01/05 10:02:52;;;;;;;3.13;1.77;;;;;;;;;;5053603;28;20337;-60
2022/01/05 10:05:19;;;;;;;2.87;1.03;;;;;;;;;;5053843;28;20589;-60
2022/01/05 10:07:46;;;;;;;1.63;0.97;;;;;;;;;;5048978;28;20756;-60
2022/01/05 10:10:13;;;;;;;2.37;1.00;;;;;;;;;;5047965;28;20590;-60
2022/01/05 10:12:40;;;;;;;1.30;0.80;;;;;;;;;;5048169;28;20264;-61
2022/01/05 10:15:07;;;;;;;3.13;1.03;;;;;;;;;;5047539;28;20294;-61
2022/01/05 10:17:36;;;;;;;2.77;1.20;;;;;;;;;;5051692;28;20295;-60
2022/01/05 10:20:07;;;;;;;3.27;1.30;;;;;;;;;;5053545;28;20261;-60
2022/01/05 10:22:44;;;;;;;2.70;1.20;;;;;;;;;;5053295;28;20286;-60
2022/01/05 10:25:18;;;;;;;2.00;1.03;;;;;;;;;;5053184;28;20258;-61
2022/01/05 10:27:55;;;;;;;4.47;1.10;;;;;;;;;;5053311;28;20251;-60
2022/01/05 10:30:22;;;;;;;2.63;1.03;;;;;;;;;;5047475;28;20276;-60
2022/01/05 10:32:55;;;;;;;2.60;1.20;;;;;;;;;;5047670;28;20277;-60
2022/01/05 10:35:25;;;;;;;2.63;1.20;;;;;;;;;;5047386;28;20278;-61
2022/01/05 10:38:03;;;;;;;1.97;1.37;;;;;;;;;;5047439;28;20262;-60
2022/01/05 10:40:33;;;;;;;2.07;1.03;;;;;;;;;;5052854;28;20258;-60
2022/01/05 10:43:00;;;;;;;2.10;1.33;;;;;;;;;;5052815;28;20261;-60
2022/01/05 10:45:41;;;;;;;2.70;0.97;;;;;;;;;;5052808;28;20254;-60
2022/01/05 10:48:09;;;;;;;2.13;1.07;;;;;;;;;;5052794;28;20258;-60
2022/01/05 10:50:36;;;;;;;1.83;0.90;;;;;;;;;;5051614;28;20323;-60
2022/01/05 10:53:04;;;;;;;4.73;0.80;;;;;;;;;;5046946;28;20727;-60
2022/01/05 10:55:31;;;;;;;1.43;0.90;;;;;;;;;;5047244;28;20285;-60
2022/01/05 10:58:07;;;;;;;1.90;0.60;;;;;;;;;;5047308;28;20345;-60
2022/01/05 11:00:45;;;;;;;3.30;1.10;;;;;;;;;;5048067;28;20763;-60
2022/01/05 11:03:20;;;;;;;1.77;0.80;;;;;;;;;;5052717;28;20312;-60
2022/01/05 11:06:07;;;;;;;1.70;1.03;;;;;;;;;;5052699;28;20261;-60
2022/01/05 11:08:46;;;;;;;1.67;1.10;;;;;;;;;;5052253;28;20345;-61
2022/01/05 11:11:28;;;;;;;3.17;0.90;;;;;;;;;;5052534;28;20247;-60
2022/01/05 11:13:55;;;;;;;1.93;1.07;;;;;;;;;;5048452;28;20300;-60
2022/01/05 11:16:28;;;;;;;2.67;1.00;;;;;;;;;;5045985;28;20286;-60
2022/01/05 11:19:13;;;;;;;1.47;0.83;;;;;;;;;;5047059;28;20250;-60
2022/01/05 11:21:41;;;;;;;1.55;0.80;;;;;;;;;;5046340;28;20392;-60
2022/01/05 11:24:08;;;;;;;1.60;0.90;;;;;;;;;;5067962;28;20027;-60
2022/01/05 11:26:35;;;;;;;1.43;0.83;;;;;;;;;;5080339;28;20257;-59
2022/01/05 11:29:05;;;;;;;1.37;0.70;;;;;;;;;;5079650;28;20746;-60
2022/01/05 11:31:32;;;;;;;4.20;1.00;;;;;;;;;;5091218;28;20631;-59
2022/01/05 11:33:59;;;;;;;1.03;0.50;;;;;;;;;;5079012;28;20281;-60
2022/01/05 11:36:26;;;;;;;3.80;0.77;;;;;;;;;;5067597;28;20388;-60
2022/01/05 11:38:53;;;;;;;1.67;0.80;;;;;;;;;;5066982;28;20260;-59
2022/01/05 11:41:20;;;;;;;1.73;0.60;;;;;;;;;;5070303;28;20283;-59
2022/01/05 11:43:48;;;;;;;2.03;0.70;;;;;;;;;;5086359;28;20314;-59
2022/01/05 11:46:18;;;;;;;1.10;0.60;;;;;;;;;;5069845;28;20352;-60
2022/01/05 11:49:08;;;;;;;2.00;0.73;;;;;;;;;;5071998;28;20257;-58
2022/01/05 11:51:45;;;;;;;2.53;0.70;;;;;;;;;;5071748;28;20258;-59
2022/01/05 11:54:22;;;;;;;2.20;0.60;;;;;;;;;;5072089;28;20277;-59
2022/01/05 11:56:51;;;;;;;1.13;0.60;;;;;;;;;;5071194;28;20657;-59
2022/01/05 11:59:36;;;;;;;1.63;0.90;;;;;;;;;;5077152;28;20256;-59
2022/01/05 12:02:06;;;;;;;1.40;0.75;;;;;;;;;;5086970;28;20341;-59
2022/01/05 12:04:53;;;;;;;1.47;0.87;;;;;;;;;;5087093;28;20048;-60
2022/01/05 12:07:39;;;;;;;2.27;0.97;;;;;;;;;;5088100;28;20253;-59
2022/01/05 12:10:18;;;;;;;2.30;0.80;;;;;;;;;;5092130;28;20252;-59
2022/01/05 12:12:57;;;;;;;4.33;1.10;;;;;;;;;;5083818;28;20261;-59
2022/01/05 12:15:43;;;;;;;1.60;0.80;;;;;;;;;;5071737;28;20333;-59
2022/01/05 12:18:10;;;;;;;1.57;0.60;;;;;;;;;;5071632;28;20331;-59
2022/01/05 12:20:39;;;;;;;4.20;0.70;;;;;;;;;;5067280;28;20585;-60
2022/01/05 12:23:25;;;;;;;2.30;0.80;;;;;;;;;;5066218;28;20258;-61
2022/01/05 12:25:51;;;;;;;;;;;;;;;;;;5066850;28;20261;-61
2022/01/05 12:28:27;;;;;;;3.53;0.80;;;;;;;;;;5068175;28;19911;-61
2022/01/05 12:30:54;;;;;;;1.43;0.63;;;;;;;;;;5075215;28;20257;-60
2022/01/05 12:33:20;;;;;;;2.57;0.90;;;;;;;;;;5084745;28;20327;-61
2022/01/05 12:35:49;;;;;;;3.20;1.40;;;;;;;;;;5082841;28;20288;-61
2022/01/05 12:38:32;;;;;;;2.23;1.23;;;;;;;;;;5075264;28;20253;-61
2022/01/05 12:41:00;;;;;;;8.03;1.30;;;;;;;;;;5074632;28;20804;-60
2022/01/05 12:43:33;;;;;;;1.73;0.90;;;;;;;;;;5069602;28;20349;-61
2022/01/05 12:46:11;;;;;;;2.47;1.20;;;;;;;;;;5069545;28;20269;-59
2022/01/05 12:48:41;;;;;;;2.20;0.93;;;;;;;;;;5069863;28;20269;-59
2022/01/05 12:51:23;;;;;;;1.63;1.00;;;;;;;;;;5070406;28;20353;-58
2022/01/05 12:54:07;;;;;;;2.33;1.00;;;;;;;;;;5074698;28;20328;-58
2022/01/05 12:56:38;;;;;;;1.63;0.83;;;;;;;;;;5074728;28;20612;-59
2022/01/05 12:59:06;;;;;;;4.57;1.30;;;;;;;;;;5075170;28;20253;-58
2022/01/05 13:01:33;;;;;;;2.63;1.10;;;;;;;;;;5074787;28;20260;-60
2022/01/05 13:04:00;;;;;;;4.03;0.70;;;;;;;;;;5071950;28;20275;-60
2022/01/05 13:06:27;;;;;;;3.53;0.80;;;;;;;;;;5069545;28;20322;-60
2022/01/05 13:09:04;;;;;;;4.77;1.30;;;;;;;;;;5069176;28;20265;-59
2022/01/05 13:11:33;;;;;;;3.10;1.03;;;;;;;;;;5068937;28;20273;-60
2022/01/05 13:14:19;;;;;;;1.80;1.00;;;;;;;;;;5071767;28;20399;-60
2022/01/05 13:16:47;;;;;;;2.07;1.23;;;;;;;;;;5074425;28;20250;-59
2022/01/05 13:19:24;;;;;;;7.37;1.20;;;;;;;;;;5074490;28;20266;-58
2022/01/05 13:21:52;;;;;;;1.87;0.90;;;;;;;;;;5074412;28;20744;-60
2022/01/05 13:24:20;;;;;;;2.40;1.20;;;;;;;;;;5073675;28;20258;-58
2022/01/05 13:27:06;;;;;;;1.67;1.03;;;;;;;;;;5070077;28;20269;-58
2022/01/05 13:29:34;;;;;;;1.90;0.90;;;;;;;;;;5069156;28;20616;-59
2022/01/05 13:32:06;;;;;;;4.30;1.20;;;;;;;;;;5068959;28;20265;-58
2022/01/05 13:34:36;;;;;;;2.50;1.27;;;;;;;;;;5088592;28;20287;-59
2022/01/05 13:37:04;;;;;;;4.03;1.90;;;;;;;;;;5093653;28;20581;-59
2022/01/05 13:39:39;;;;;;;14.80;2.47;;;;;;;;;;5093836;28;20256;-59
2022/01/05 13:42:07;;;;;;;9.55;3.17;;;;;;;;;;5075163;28;20277;-58
2022/01/05 13:44:35;;;;;;;30.43;12.97;;;;;;;;;;5074270;28;20024;-58
2022/01/05 13:47:11;;;;;;;70.50;38.07;;;;;;;;;;5073487;28;20258;-58
2022/01/05 13:49:38;;;;;;;86.33;40.17;;;;;;;;;;5068726;28;20344;-58
2022/01/05 13:52:07;;;;;;;68.33;28.50;;;;;;;;;;5068859;28;20754;-59
2022/01/05 13:54:35;;;;;;;36.53;14.30;;;;;;;;;;5068622;28;20805;-59
2022/01/05 13:57:02;;;;;;;24.03;8.00;;;;;;;;;;5068409;28;20277;-58
2022/01/05 13:59:45;;;;;;;25.73;9.67;;;;;;;;;;5073544;28;20280;-58
2022/01/05 14:02:12;;;;;;;28.53;9.50;;;;;;;;;;5073722;28;20253;-58
2022/01/05 14:04:53;;;;;;;20.63;8.17;;;;;;;;;;5073635;28;20766;-57
2022/01/05 14:07:22;;;;;;;11.53;4.97;;;;;;;;;;5073171;28;20264;-59
2022/01/05 14:10:07;;;;;;;13.40;6.07;;;;;;;;;;5071884;28;20349;-59
2022/01/05 14:12:35;;;;;;;10.95;5.35;;;;;;;;;;5068252;28;20253;-58
2022/01/05 14:15:03;;;;;;;11.33;5.43;;;;;;;;;;5068098;28;20504;-60
2022/01/05 14:17:31;;;;;;;8.73;5.00;;;;;;;;;;5067430;28;20666;-60
2022/01/05 14:20:13;;;;;;;11.00;5.07;;;;;;;;;;5069388;28;20277;-60
2022/01/05 14:22:40;;;;;;;9.43;5.00;;;;;;;;;;5073037;28;20056;-60
2022/01/05 14:25:07;;;;;;;10.40;5.43;;;;;;;;;;5073214;28;20539;-60
2022/01/05 14:27:38;;;;;;;9.03;5.17;;;;;;;;;;5073278;28;20025;-60
2022/01/05 14:30:06;;;;;;;15.50;6.67;;;;;;;;;;5073009;28;20119;-60
2022/01/05 14:32:35;;;;;;;15.03;5.07;;;;;;;;;;5070152;28;20039;-60
2022/01/05 14:35:03;;;;;;;34.93;7.77;;;;;;;;;;5067598;28;20033;-60
2022/01/05 14:37:30;;;;;;;13.17;6.27;;;;;;;;;;5066847;28;20474;-60
2022/01/05 14:39:58;;;;;;;15.93;8.27;;;;;;;;;;5067749;28;20044;-60
2022/01/05 14:42:26;;;;;;;14.83;7.27;;;;;;;;;;5069544;28;20025;-60
2022/01/05 14:44:53;;;;;;;13.73;7.37;;;;;;;;;;5072739;28;20017;-60
2022/01/05 14:47:24;;;;;;;13.40;7.00;;;;;;;;;;5073028;28;20020;-60
2022/01/05 14:49:52;;;;;;;14.67;6.80;;;;;;;;;;5072583;28;20417;-60